Weather observations for the past three days for
Henderson Field Airport
Metric (Imperial)
Date Time (sst) Wind (kph) Vis. (km) Weather Sky Cond. Temperature (ºC) Relative Humidity Wind Chill (°C) Heat Index (°C) Pressure Precipitation (cm)
Air Dwpt 6 hour altimeter (cm) sea level (mb) 1 hr 3 hr 6 hr
Max. Min.
07 08:56 NE 11 16.09 Overcast OVC036 21.1 16.1 73% 76.86 1024.9
07 07:56 E 11 16.09 Overcast OVC030 20.6 16.1 76% 76.84 1024.4
07 06:56 NE 9 16.09 Overcast OVC028 20 14.4 20 18.9 70% 76.81 1024.2
07 05:56 NE 6 16.09 Overcast OVC028 20 14.4 70% 76.76 1023.5
07 04:56 N 6 16.09 Fair CLR 18.9 13.9 73% 76.76 1023.3
07 03:56 NE 6 16.09 Overcast FEW037 OVC090 19.4 14.4 73% 76.76 1023.5
07 02:56 Calm 16.09 Partly Cloudy FEW038 SCT075 19.4 15 76% 76.76 1023.5
07 01:56 N 6 16.09 Overcast SCT025 BKN038 OVC080 20 15 73% 76.78 1023.7
07 00:56 NE 6 16.09 Mostly Cloudy FEW024 BKN060 BKN075 19.4 14.4 20.6 19.4 73% 76.81 1024.0
06 23:56 E 7 16.09 Overcast FEW060 BKN070 OVC100 20 14.4 70% 76.81 1024.1
06 22:56 E 9 16.09 Overcast BKN045 BKN075 OVC090 20.6 14.4 68% 76.84 1024.3
06 21:56 E 9 16.09 Overcast OVC045 20.6 14.4 68% 76.81 1024.2
06 20:56 E 9 16.09 A Few Clouds FEW027 19.4 14.4 73% 76.78 1023.9
06 19:56 NE 9 16.09 A Few Clouds FEW025 20 14.4 70% 76.73 1023.1
06 18:56 N 9 16.09 Fair CLR 21.1 14.4 23.9 20.6 66% 76.71 1022.7
06 17:56 Vrbl 7 16.09 Fair CLR 21.7 13.9 61% 76.66 1022.1
06 16:56 NE 11 16.09 Fair CLR 22.2 13.3 57% 76.63 1021.6
06 15:56 NE 11 16.09 Fair CLR 22.2 12.8 55% 76.63 1021.6
06 14:56 NE 11 16.09 Fair CLR 22.8 12.2 51% 76.66 1022.0
06 13:56 N 19 G 30 16.09 A Few Clouds FEW026 22.8 14.4 59% 76.68 1022.5
06 12:56 N 17 16.09 Fair CLR 22.8 13.9 23.3 18.9 57% 76.71 1022.7
06 11:56 N 13 16.09 Fair CLR 22.2 13.9 59% 76.68 1022.6
06 10:56 N 7 16.09 Fair CLR 22.2 14.4 61% 76.71 1022.8
06 09:56 N 13 16.09 A Few Clouds FEW023 22.2 14.4 61% 76.71 1022.8
06 08:56 N 11 16.09 Mostly Cloudy BKN023 21.1 15 68% 76.68 1022.6
06 07:56 N 9 16.09 Partly Cloudy SCT023 20 14.4 70% 76.68 1022.4
06 06:56 N 6 16.09 A Few Clouds FEW023 18.9 15 18.9 17.2 78% 76.66 1021.9
06 05:56 Calm 16.09 Mostly Cloudy BKN023 17.8 14.4 81% 76.61 1021.3
06 04:56 Calm 16.09 Mostly Cloudy BKN023 17.8 13.9 78% 76.58 1021.0
06 03:56 N 6 16.09 Mostly Cloudy BKN023 18.3 14.4 78% 76.61 1021.4
06 02:56 N 6 16.09 Partly Cloudy SCT023 18.3 14.4 78% 76.61 1021.6
06 01:56 N 7 16.09 Partly Cloudy SCT025 18.9 13.9 73% 76.66 1022.1
06 00:56 N 6 16.09 Partly Cloudy SCT023 18.9 14.4 20.6 18.9 75% 76.68 1022.5
05 23:56 N 7 16.09 Partly Cloudy SCT025 18.9 14.4 75% 76.73 1023.0
05 22:56 N 9 16.09 Mostly Cloudy SCT025 BKN033 19.4 14.4 73% 76.73 1023.2
05 21:56 N 9 16.09 Mostly Cloudy BKN023 19.4 15 76% 76.73 1023.2
05 20:56 N 9 16.09 Partly Cloudy SCT023 SCT028 SCT037 20 15 73% 76.71 1022.6
05 19:56 N 11 16.09 A Few Clouds FEW025 20 14.4 70% 76.66 1022.2
05 18:56 N 11 16.09 Mostly Cloudy FEW022 BKN039 20.6 15 21.7 20 70% 76.63 1021.6
05 17:56 N 15 16.09 Overcast BKN022 BKN033 OVC039 21.1 15.6 71% 76.61 1021.4
05 16:56 NW 9 16.09 Overcast BKN020 OVC038 21.1 16.1 73% 76.61 1021.5
05 15:56 N 13 16.09 Partly Cloudy SCT038 21.7 16.1 71% 76.63 1021.7
05 14:56 N 11 16.09 A Few Clouds FEW022 21.7 16.7 73% 76.68 1022.3
05 13:56 N 11 14.48 Light Rain BKN020 BKN032 OVC040 21.1 16.1 73% 76.73 1023.1
05 12:56 N 13 14.48 Overcast FEW015 BKN029 OVC037 21.1 16.1 22.8 18.9 73% 76.76 1023.5
05 11:56 Vrbl 7 16.09 Mostly Cloudy BKN038 21.7 15.6 68% 76.81 1024.1
05 10:56 N 9 8.05 Overcast with Haze BKN021 OVC027 19.4 15 76% 76.84 1024.6
05 09:56 N 7 16.09 Overcast OVC031 20 14.4 70% 76.84 1024.4
05 08:56 N 6 16.09 Overcast OVC025 19.4 13.9 71% 76.81 1024.3
05 07:56 N 7 16.09 Overcast OVC027 19.4 13.3 68% 76.81 1024.0
05 06:56 N 7 16.09 Overcast OVC025 18.9 13.3 19.4 18.3 70% 76.76 1023.5
05 05:56 N 9 16.09 Overcast OVC025 18.9 13.3 70% 76.73 1023.1
05 04:56 N 9 16.09 Overcast OVC029 18.9 13.3 70% 76.73 1023.0
05 03:56 N 7 16.09 Mostly Cloudy BKN033 18.9 12.8 68% 76.71 1022.9
05 02:56 N 11 16.09 Mostly Cloudy BKN031 18.9 12.2 65% 76.71 1022.9
05 01:56 N 6 16.09 Partly Cloudy SCT031 18.9 12.2 65% 76.73 1023.3
05 00:56 N 7 16.09 Mostly Cloudy BKN029 18.9 12.8 19.4 18.3 68% 76.78 1023.7
04 23:56 N 9 16.09 Mostly Cloudy BKN029 18.9 13.3 70% 76.81 1024.2
04 22:56 N 6 16.09 A Few Clouds FEW027 18.9 13.3 70% 76.84 1024.5
04 21:56 N 9 16.09 Mostly Cloudy BKN031 18.9 13.3 70% 76.84 1024.5
04 20:56 Calm 16.09 Mostly Cloudy BKN033 18.9 13.3 70% 76.84 1024.5
04 19:56 N 6 16.09 A Few Clouds FEW029 18.9 12.8 68% 76.78 1023.9
04 18:56 NE 6 16.09 A Few Clouds FEW027 20 13.3 22.8 20 65% 76.76 1023.6
04 17:56 NE 11 16.09 Partly Cloudy FEW027 SCT034 20.6 13.3 63% 76.78 1023.9
04 16:56 N 9 16.09 Mostly Cloudy BKN027 21.7 13.9 61% 76.78 1023.9
04 15:56 NE 11 16.09 Fair CLR 21.7 13.9 61% 76.81 1024.0
04 14:56 N 11 16.09 Fair CLR 22.8 12.8 53% 76.84 1024.3
04 13:56 NE 13 16.09 Partly Cloudy SCT035 22.2 12.8 55% 76.86 1024.8
04 12:56 Vrbl 11 16.09 Mostly Cloudy BKN035 22.8 12.8 22.8 19.4 53% 76.89 1025.2
04 11:56 NE 11 12.87 Fair CLR 22.2 12.2 53% 76.94 1025.7
04 10:56 Vrbl 11 16.09 Fair CLR 22.2 11.7 52% 76.96 1026.1
04 09:56 NE 11 16.09 Fair CLR 21.7 11.7 53% 76.99 1026.4
Date Time (sst) Wind (kph) Vis. (km) Weather Sky Cond. Air Dwpt Max. Min. Relative Humidity Wind Chill (°C) Heat Index (°C) altimeter (cm) sea level (mb) 1 hr 3 hr 6 hr
6 hour
Temperature (ºC) Pressure Precipitation (cm)